Les vidéos Equidia

Discipline Date Nom de la Course Hippodrome Alloc Jockey/Driver Red. Km Dist Corde Ferrure Autostart Class Video
Attelé 2017-06-10 AMARYLLIS NANTES 22.000 R. CONGARD 1'16"40 3000 G 13
Attelé 2017-05-31 TROIS MONTS CAEN 32.000 D. THOMAIN 1'15"40 2450 D 08
Attelé 2017-05-26 MEAULNES CORTA PONTCHATEAU 21.000 ALEXIS LERENARD 1'17"10 2800 G 09
Attelé 2017-05-19 MICHEL BAZIRE ANGERS EVENTARD 24.000 A. JANNIER 1'18"20 2350 D A 12
Attelé 2017-05-04 A. MAILLARD CORDEMAIS 22.000 N. BAZIRE 2825 G AI
Attelé 2017-04-13 G.P PRINTEMPS LYON LA SOIE 32.000 F. DARONDEL 2700 D AI
Attelé 2017-04-05 ROXANE GRIFF ANGERS EVENTARD 21.000 - 1'15"70 2350 D A 09
Attelé 2017-03-04 DOCTEUR ALLARD PORNICHET 22.000 R. CONGARD 1'17"00 2725 G 05
Attelé 2017-02-22 COORD. RURALE VIRE 21.000 R. CONGARD 1'18"50 2800 D 03
Attelé 2017-01-30 RETHEL PARIS-VINCENNES 48.000 J.M. BAZIRE 1'14"60 2850 G 05
Attelé 2017-01-23 SAINTE-GAUBURGE PARIS-VINCENNES 22.000 R. CONGARD 1'17"20 2700 G 06
Attelé 2017-01-09 DE NORMANDIE CHATEAUBRIANT 20.000 R. CONGARD 3000 D AI
Attelé 2017-01-04 SAINT-BRIEUC PARIS-VINCENNES 14.000 D. CRESPEL 2100 G A AI
Attelé 2016-12-18 GENERAL POMMEAU ANGERS EVENTARD 22.000 J.Y. RICART 1'15"90 3125 D 04
Attelé 2016-12-02 HILDA PARIS-VINCENNES 46.000 J.M. BAZIRE 2850 G
Attelé 2016-11-19 ANDRE ROUER LAVAL 25.000 J.M. BAZIRE 1'16"40 2875 G 08
Attelé 2016-11-11 GEMMA PARIS-VINCENNES 46.000 J.M. BAZIRE 1'15"00 2850 G 04
Attelé 2016-10-08 CREDIT MUTUEL LAVAL 20.000 J.M. BAZIRE 2875 G 09
Attelé 2016-09-30 ROTARY LAVAL LAVAL 22.000 J.Y. RICART 1'17"50 2875 G 07
Attelé 2016-02-15 JUAN LES PINS PARIS-VINCENNES 46.000 J.M. BAZIRE 1'15"10 2700 G 01
Monté 2016-02-04 DE CALAIS PARIS-VINCENNES 46.000 J.Y. RICART 2850 G AI
Attelé 2016-01-12 QUESTEMBERT PARIS-VINCENNES 42.000 J.M. BAZIRE 1'15"30 2700 G 05
Attelé 2016-01-07 CHATELGUYON PARIS-VINCENNES 48.000 J.M. BAZIRE 2700 G AI
Attelé 2016-01-01 DE TENCE PARIS-VINCENNES 40.000 J.M. BAZIRE 1'15"80 2700 G 02
Attelé 2015-12-25 CHATEAU-SALINS PARIS-VINCENNES 38.000 A. ABRIVARD 2200 G AI
Attelé 2015-12-11 FERRIERES PARIS-VINCENNES 45.000 J.M. BAZIRE 1'14"70 2700 G 07
Attelé 2015-12-04 VESTA PARIS-VINCENNES 36.000 J.M. BAZIRE 1'15"20 2850 G 04
Attelé 2015-11-30 HERMES D ANGERS EVENTARD 18.000 N. CHEREAU 3125 D
Attelé 2015-11-26 D'AIGUES MORTES PARIS-VINCENNES 40.000 J.M. BAZIRE 2700 G
Attelé 2015-10-28 M.BRETAGNE-A PARIS-VINCENNES 50.000 F. DARONDEL 1'16"50 2700 G 07
Attelé 2015-10-11 PMU TABAC LOTO CHARTRES 15.000 T. COMPAS 1'18"60 2800 G 10
Attelé 2014-11-29 JONCHERY PARIS-VINCENNES 38.000 J.M. BAZIRE 1'15"40 2700 02
Attelé 2014-11-23 KERJACQUES-B ANGERS EVENTARD 20.000 F. DARONDEL 1'19"10 3125 10
Attelé 2014-11-05 G.P VINS NANTES NANTES 21.000 N. CHEREAU 1'17"80 3000 11
Attelé 2014-10-26 DE FORCE LAVAL 16.000 T. COMPAS 2875
Attelé 2014-10-01 TNCE ELECT. -A ANGERS EVENTARD 21.000 F. DARONDEL 3150
Attelé 2014-02-03 ROUGES TERRES PARIS-VINCENNES 44.000 J.M. BAZIRE 1'15"30 2700 03
Attelé 2014-01-25 BELLEY PARIS-VINCENNES 36.000 J.M. BAZIRE 1'15"90 2850 04
Attelé 2014-01-04 DE DOUAI PARIS-VINCENNES 36.000 A. ABRIVARD 2700 AI